Rockport, Indiana
Current Conditions -  °F | °C
As of 5:56 AM on Sunday 23 Nov 2014 (Local Time) from KOWB Reporting Station
Overcast Overcast  
Wind Chill: 55°   Ceiling: 2700
Heat Index: 55°   Visibility: 10mi
Dew Point: 40°   Wind: 12mph
Humidity: 57%   Direction: 150°SSE
Pressure: 29.92"   Gusts: NA
Location:  37.88°N, 87.05°W
Report Text: KOWB 231156Z 15010KT 10SM BKN027 BKN037 OVC060 13/04 A2992 RMK AO2 56018 T01270044 10127 20088 BKN V SCT SLP129
Loading
Personal Weather Stations






























Interactive Weather Map New forecast layout! Learn more

10-Day Weather Forecast

Advertisements
Track Severe Weather on mobile